Upper Montclair, New Jersey
Current Conditions -  °F | °C
As of 4:53 PM on Monday 24 Nov 2014 (Local Time) from KCDW Reporting Station
Few Clouds Few Clouds  
Wind Chill: 68°   Ceiling: Unl
Heat Index: 68°   Visibility: 10mi
Dew Point: 54°   Wind: 6mph
Humidity: 61%   Direction: 220°SW
Pressure: 29.62"   Gusts: 20mph
Location:  40.8433°N, 74.2009°W
Report Text: KCDW 242153Z 22005G17KT 10SM FEW041 20/12 A2962 RMK AO2 SLP036 T02000122
Loading
Personal Weather Stations






























Interactive Weather Map New forecast layout! Learn more

10-Day Weather Forecast

Advertisements
Track Severe Weather on mobile